createdAt,value
2017-08-19T00:00:04.464Z,68.68
2017-08-19T00:00:36.725Z,68.68
2017-08-19T00:01:08.982Z,68.16
2017-08-19T00:01:41.294Z,68.16
2017-08-19T00:02:13.549Z,68.54
2017-08-19T00:02:45.813Z,68.58
2017-08-19T00:03:18.098Z,68.54
2017-08-19T00:03:50.382Z,68.64
2017-08-19T00:04:22.667Z,68.54
2017-08-19T00:04:54.957Z,67.87
2017-08-19T00:05:27.239Z,68.35
2017-08-19T00:05:59.535Z,68.44
2017-08-19T00:06:31.816Z,68.54
2017-08-19T00:07:04.142Z,68.54
2017-08-19T00:07:36.434Z,68.26
2017-08-19T00:08:08.717Z,68.54
2017-08-19T00:08:40.998Z,68.16
2017-08-19T00:09:13.280Z,68.44
2017-08-19T00:09:45.550Z,68.54
2017-08-19T00:10:17.825Z,68.44
2017-08-19T00:10:50.095Z,68.64
2017-08-19T00:11:22.386Z,68.54
2017-08-19T00:11:54.668Z,68.44
2017-08-19T00:12:26.965Z,68.06
2017-08-19T00:12:59.229Z,67.87
2017-08-19T00:13:31.494Z,68.54
2017-08-19T00:14:03.753Z,68.54
2017-08-19T00:14:36.036Z,68.06
2017-08-19T00:15:08.284Z,68.16
2017-08-19T00:15:40.544Z,68.06
2017-08-19T00:16:12.835Z,68.44
2017-08-19T00:16:45.117Z,67.97
2017-08-19T00:17:17.370Z,68.44
2017-08-19T00:17:49.783Z,67.97
2017-08-19T00:18:22.042Z,68.06
2017-08-19T00:18:54.294Z,68.16
2017-08-19T00:19:26.573Z,68.16
2017-08-19T00:19:58.811Z,68.26
2017-08-19T00:20:31.081Z,68.26
2017-08-19T00:21:03.353Z,68.26
2017-08-19T00:21:35.629Z,67.87
2017-08-19T00:22:07.926Z,68.06
2017-08-19T00:22:40.193Z,68.35
2017-08-19T00:23:12.446Z,68.26
2017-08-19T00:23:44.741Z,68.35
2017-08-19T00:24:17.051Z,68.35
2017-08-19T00:24:49.360Z,68.06
2017-08-19T00:25:21.639Z,68.26
2017-08-19T00:25:53.925Z,67.97
2017-08-19T00:26:26.212Z,68.16
2017-08-19T00:26:58.498Z,68.16
2017-08-19T00:27:30.780Z,68.26
2017-08-19T00:28:03.106Z,68.26
2017-08-19T00:28:35.382Z,68.16
2017-08-19T00:29:07.666Z,68.16
2017-08-19T00:29:39.955Z,68.26
2017-08-19T00:30:12.229Z,68.44
2017-08-19T00:30:44.508Z,68.26
2017-08-19T00:31:16.793Z,68.06
2017-08-19T00:31:49.085Z,68.26
2017-08-19T00:32:21.355Z,68.26
2017-08-19T00:32:53.642Z,68.35
2017-08-19T00:33:25.933Z,68.35
2017-08-19T00:33:58.205Z,68.16
2017-08-19T00:34:30.464Z,68.35
2017-08-19T00:35:02.727Z,68.26
2017-08-19T00:35:35.010Z,68.35
2017-08-19T00:36:07.269Z,68.35
2017-08-19T00:36:39.522Z,68.26
2017-08-19T00:37:11.771Z,68.35
2017-08-19T00:37:44.016Z,68.35
2017-08-19T00:38:16.265Z,68.35
2017-08-19T00:38:48.517Z,68.26
2017-08-19T00:39:20.767Z,68.35
2017-08-19T00:39:53.051Z,68.35
2017-08-19T00:40:25.323Z,68.35
2017-08-19T00:40:57.658Z,68.35
2017-08-19T00:41:29.912Z,68.26
2017-08-19T00:42:02.184Z,68.26
2017-08-19T00:42:34.449Z,68.44
2017-08-19T00:43:06.720Z,68.26
2017-08-19T00:43:38.996Z,68.35
2017-08-19T00:44:11.296Z,68.26
2017-08-19T00:44:43.574Z,68.26
2017-08-19T00:45:15.872Z,68.35
2017-08-19T00:45:48.158Z,68.35
2017-08-19T00:46:20.439Z,68.26
2017-08-19T00:46:52.711Z,68.26
2017-08-19T00:47:25.039Z,68.16
2017-08-19T00:47:57.324Z,68.35
2017-08-19T00:48:29.596Z,67.97
2017-08-19T00:49:01.890Z,68.35
2017-08-19T00:49:34.188Z,68.35
2017-08-19T00:50:06.465Z,68.35
2017-08-19T00:50:38.754Z,68.35
2017-08-19T00:51:11.048Z,68.26
2017-08-19T00:51:43.359Z,68.35
2017-08-19T00:52:15.645Z,68.35
2017-08-19T00:52:47.952Z,68.16
2017-08-19T00:53:20.259Z,68.26
2017-08-19T00:53:52.540Z,68.35
2017-08-19T00:54:24.821Z,68.35
2017-08-19T00:54:57.128Z,68.06
2017-08-19T00:55:29.415Z,68.35
2017-08-19T00:56:01.699Z,67.77
2017-08-19T00:56:33.975Z,68.35
2017-08-19T00:57:06.253Z,68.16
2017-08-19T00:57:38.545Z,68.35
2017-08-19T00:58:10.819Z,68.35
2017-08-19T00:58:43.115Z,68.06
2017-08-19T00:59:15.403Z,68.26
2017-08-19T00:59:47.688Z,68.32
2017-08-19T01:00:19.979Z,67.87
2017-08-19T01:00:52.265Z,68.26
2017-08-19T01:01:24.555Z,67.77
2017-08-19T01:01:56.849Z,68.35
2017-08-19T01:02:29.126Z,68.16
2017-08-19T01:03:01.461Z,68.16
2017-08-19T01:03:33.761Z,67.77
2017-08-19T01:04:06.864Z,68.16
2017-08-19T01:04:39.274Z,68.13
2017-08-19T01:05:11.535Z,68.16
2017-08-19T01:05:43.795Z,68.22
2017-08-19T01:06:16.062Z,68.26
2017-08-19T01:06:48.295Z,68.35
2017-08-19T01:07:20.654Z,68.26
2017-08-19T01:07:52.926Z,68.26
2017-08-19T01:08:25.234Z,68.13
2017-08-19T01:08:57.481Z,68.03
2017-08-19T01:09:29.761Z,68.22
2017-08-19T01:10:02.042Z,68.13
2017-08-19T01:10:34.300Z,68.22
2017-08-19T01:11:06.552Z,68.13
2017-08-19T01:11:38.800Z,68.16
2017-08-19T01:12:11.059Z,68.22
2017-08-19T01:12:43.362Z,68.22
2017-08-19T01:13:15.622Z,67.97
2017-08-19T01:13:47.880Z,68.22
2017-08-19T01:14:20.154Z,68.26
2017-08-19T01:14:52.433Z,68.22
2017-08-19T01:15:24.705Z,68.13
2017-08-19T01:15:57.081Z,67.93
2017-08-19T01:16:29.341Z,68.13
2017-08-19T01:17:01.606Z,68.03
2017-08-19T01:17:33.871Z,68.13
2017-08-19T01:18:06.118Z,68.13
2017-08-19T01:18:39.316Z,68.22
2017-08-19T01:19:11.592Z,68.06
2017-08-19T01:19:43.843Z,68.22
2017-08-19T01:20:16.086Z,68.26
2017-08-19T01:20:48.353Z,67.93
2017-08-19T01:21:20.587Z,68.22
2017-08-19T01:21:52.848Z,68.22
2017-08-19T01:22:25.144Z,68.22
2017-08-19T01:22:57.451Z,67.93
2017-08-19T01:23:29.745Z,68.13
2017-08-19T01:24:02.037Z,68.22
2017-08-19T01:24:34.322Z,67.93
2017-08-19T01:25:06.637Z,68.13
2017-08-19T01:25:38.908Z,68.13
2017-08-19T01:26:11.208Z,68.03
2017-08-19T01:26:43.503Z,68.22
2017-08-19T01:27:15.804Z,68.22
2017-08-19T01:27:48.113Z,68.13
2017-08-19T01:28:20.406Z,68.22
2017-08-19T01:28:52.673Z,68.03
2017-08-19T01:29:24.962Z,68.03
2017-08-19T01:29:57.244Z,68.03
2017-08-19T01:30:29.536Z,68.13
2017-08-19T01:31:01.820Z,68.03
2017-08-19T01:31:34.120Z,68.13
2017-08-19T01:32:06.417Z,67.93
2017-08-19T01:32:38.694Z,68.22
2017-08-19T01:33:10.971Z,68.03
2017-08-19T01:33:43.256Z,68.22
2017-08-19T01:34:15.517Z,68.22
2017-08-19T01:34:47.771Z,67.93
2017-08-19T01:35:20.055Z,68.13
2017-08-19T01:35:52.324Z,68.03
2017-08-19T01:36:24.645Z,68.03
2017-08-19T01:36:56.911Z,68.03
2017-08-19T01:37:29.190Z,68.03
2017-08-19T01:38:01.437Z,68.13
2017-08-19T01:38:33.668Z,68.13
2017-08-19T01:39:05.927Z,68.13
2017-08-19T01:39:38.188Z,68.22
2017-08-19T01:40:10.439Z,68.03
2017-08-19T01:40:42.662Z,68.22
2017-08-19T01:41:14.923Z,68.22
2017-08-19T01:41:47.201Z,68.13
2017-08-19T01:42:19.463Z,68.32
2017-08-19T01:42:51.733Z,68.22
2017-08-19T01:43:23.993Z,67.93
2017-08-19T01:43:56.284Z,68.03
2017-08-19T01:44:28.537Z,68.13
2017-08-19T01:45:00.805Z,68.03
2017-08-19T01:45:33.058Z,68.03
2017-08-19T01:46:05.299Z,68.32
2017-08-19T01:46:37.569Z,68.03
2017-08-19T01:47:09.833Z,68.03
2017-08-19T01:47:42.109Z,68.41
2017-08-19T01:48:14.375Z,68.41
2017-08-19T01:48:46.710Z,68.03
2017-08-19T01:49:18.974Z,68.13
2017-08-19T01:49:51.264Z,68.22
2017-08-19T01:50:23.579Z,68.13
2017-08-19T01:50:55.873Z,68.13
2017-08-19T01:51:28.176Z,68.03
2017-08-19T01:52:00.462Z,68.13
2017-08-19T01:52:32.710Z,68.41
2017-08-19T01:53:04.996Z,68.22
2017-08-19T01:53:37.262Z,68.13
2017-08-19T01:54:09.525Z,68.32
2017-08-19T01:54:41.778Z,68.22
2017-08-19T01:55:14.041Z,68.03
2017-08-19T01:55:46.287Z,68.03
2017-08-19T01:56:18.545Z,68.03
2017-08-19T01:56:50.840Z,68.22
2017-08-19T01:57:23.099Z,68.22
2017-08-19T01:57:55.361Z,68.22
2017-08-19T01:58:27.624Z,68.03
2017-08-19T01:58:59.886Z,68.22
2017-08-19T01:59:32.146Z,68.13
2017-08-19T02:00:04.414Z,68.13
2017-08-19T02:00:37.349Z,68.13
2017-08-19T02:01:09.660Z,68.13
2017-08-19T02:01:41.947Z,68.13
2017-08-19T02:02:14.221Z,68.22
2017-08-19T02:02:46.488Z,68.03
2017-08-19T02:03:18.752Z,68.22
2017-08-19T02:03:51.023Z,68.13
2017-08-19T02:04:23.290Z,68.13
2017-08-19T02:04:55.577Z,68.41
2017-08-19T02:05:27.845Z,68.22
2017-08-19T02:06:00.136Z,68.03
2017-08-19T02:06:32.429Z,68.13
2017-08-19T02:07:04.723Z,68.03
2017-08-19T02:07:37.006Z,68.22
2017-08-19T02:08:09.287Z,68.22
2017-08-19T02:08:41.565Z,68.13
2017-08-19T02:09:13.855Z,68.03
2017-08-19T02:09:46.155Z,68.13
2017-08-19T02:10:18.462Z,68.13
2017-08-19T02:10:50.757Z,68.32
2017-08-19T02:11:23.036Z,68.32
2017-08-19T02:11:55.362Z,68.13
2017-08-19T02:12:27.657Z,68.22
2017-08-19T02:12:59.935Z,68.13
2017-08-19T02:13:32.213Z,68.13
2017-08-19T02:14:04.474Z,68.32
2017-08-19T02:14:36.726Z,68.41
2017-08-19T02:15:09.950Z,68.32
2017-08-19T02:15:42.216Z,68.03
2017-08-19T02:16:14.535Z,68.22
2017-08-19T02:16:46.797Z,68.41
2017-08-19T02:17:19.111Z,68.41
2017-08-19T02:17:51.376Z,67.93
2017-08-19T02:18:23.627Z,68.13
2017-08-19T02:18:55.889Z,68.22
2017-08-19T02:19:28.171Z,68.22
2017-08-19T02:20:00.450Z,68.13
2017-08-19T02:20:32.722Z,68.13
2017-08-19T02:21:04.978Z,68.22
2017-08-19T02:21:37.233Z,68.41
2017-08-19T02:22:09.535Z,68.03
2017-08-19T02:22:41.802Z,68.13
2017-08-19T02:23:14.047Z,68.22
2017-08-19T02:23:46.310Z,68.13
2017-08-19T02:24:18.703Z,68.13
2017-08-19T02:24:50.957Z,68.22
2017-08-19T02:25:23.207Z,68.41
2017-08-19T02:25:55.473Z,68.13
2017-08-19T02:26:27.734Z,68.13
2017-08-19T02:26:59.976Z,68.13
2017-08-19T02:27:32.240Z,68.22
2017-08-19T02:28:04.547Z,68.22
2017-08-19T02:28:36.845Z,68.32
2017-08-19T02:29:09.136Z,68.41
2017-08-19T02:29:41.415Z,68.32
2017-08-19T02:30:13.688Z,68.22
2017-08-19T02:30:45.948Z,68.41
2017-08-19T02:31:18.193Z,68.13
2017-08-19T02:31:50.464Z,68.22
2017-08-19T02:32:22.744Z,68.41
2017-08-19T02:32:55.038Z,68.22
2017-08-19T02:33:27.319Z,68.41
2017-08-19T02:33:59.573Z,67.99
2017-08-19T02:34:31.808Z,68.22
2017-08-19T02:35:04.062Z,68.32
2017-08-19T02:35:36.347Z,68.13
2017-08-19T02:36:08.623Z,68.22
2017-08-19T02:36:40.884Z,68.03
2017-08-19T02:37:13.145Z,68.29
2017-08-19T02:37:45.401Z,68.22
2017-08-19T02:38:17.656Z,68.13
2017-08-19T02:38:49.998Z,68.51
2017-08-19T02:39:22.401Z,68.13
2017-08-19T02:39:54.661Z,68.13
2017-08-19T02:40:26.984Z,68.13
2017-08-19T02:40:59.254Z,68.41
2017-08-19T02:41:31.521Z,68.22
2017-08-19T02:42:03.783Z,68.13
2017-08-19T02:42:36.045Z,68.03
2017-08-19T02:43:08.287Z,68.13
2017-08-19T02:43:40.563Z,68.22
2017-08-19T02:44:13.798Z,68.51
2017-08-19T02:44:46.042Z,68.22
2017-08-19T02:45:18.306Z,68.41
2017-08-19T02:45:50.571Z,67.99
2017-08-19T02:46:22.839Z,68.13
2017-08-19T02:46:55.102Z,68.13
2017-08-19T02:47:27.400Z,68.13
2017-08-19T02:47:59.650Z,68.13
2017-08-19T02:48:31.908Z,68.13
2017-08-19T02:49:04.159Z,68.19
2017-08-19T02:49:36.410Z,68.13
2017-08-19T02:50:08.681Z,68.13
2017-08-19T02:50:40.956Z,68.13
2017-08-19T02:51:13.829Z,68.41
2017-08-19T02:51:46.085Z,68.41
2017-08-19T02:52:18.368Z,68.32
2017-08-19T02:52:50.627Z,68.13
2017-08-19T02:53:23.821Z,68.51
2017-08-19T02:53:56.083Z,68.38
2017-08-19T02:54:28.482Z,68.41
2017-08-19T02:55:00.739Z,68.03
2017-08-19T02:55:33.136Z,68.13
2017-08-19T02:56:05.423Z,67.8
2017-08-19T02:56:37.682Z,68.32
2017-08-19T02:57:09.937Z,68.09
2017-08-19T02:57:42.210Z,68.13
2017-08-19T02:58:14.494Z,68.09
2017-08-19T02:58:46.783Z,68.09
2017-08-19T02:59:19.067Z,68.09
2017-08-19T02:59:51.327Z,68.19
2017-08-19T03:00:23.656Z,68.19
2017-08-19T03:00:55.930Z,68.38
2017-08-19T03:01:28.236Z,68.09
2017-08-19T03:02:00.487Z,68.19
2017-08-19T03:02:32.755Z,67.8
2017-08-19T03:03:05.019Z,68.29
2017-08-19T03:03:37.282Z,68.29
2017-08-19T03:04:09.549Z,68.38
2017-08-19T03:04:41.813Z,67.8
2017-08-19T03:05:14.066Z,68.29
2017-08-19T03:05:46.344Z,67.99
2017-08-19T03:06:18.590Z,68.09
2017-08-19T03:06:50.909Z,68.38
2017-08-19T03:07:23.166Z,68.76
2017-08-19T03:07:55.459Z,68.19
2017-08-19T03:08:27.736Z,68.19
2017-08-19T03:09:00.002Z,68.09
2017-08-19T03:09:32.293Z,68.09
2017-08-19T03:10:04.537Z,68.38
2017-08-19T03:10:36.802Z,68.48
2017-08-19T03:11:09.071Z,68.09
2017-08-19T03:11:41.335Z,68.19
2017-08-19T03:12:13.589Z,68.09
2017-08-19T03:12:45.841Z,68.09
2017-08-19T03:13:18.101Z,68.09
2017-08-19T03:13:50.482Z,68.09
2017-08-19T03:14:22.756Z,68.19
2017-08-19T03:14:55.031Z,68.41
2017-08-19T03:15:27.318Z,68.19
2017-08-19T03:15:59.617Z,68.29
2017-08-19T03:16:31.897Z,68.09
2017-08-19T03:17:04.167Z,68.19
2017-08-19T03:17:36.468Z,68.09
2017-08-19T03:18:08.746Z,68.19
2017-08-19T03:18:40.994Z,67.99
2017-08-19T03:19:13.259Z,68.09
2017-08-19T03:19:45.515Z,68.29
2017-08-19T03:20:17.798Z,68.09
2017-08-19T03:20:50.151Z,68.76
2017-08-19T03:21:22.417Z,68.09
2017-08-19T03:21:54.773Z,68.09
2017-08-19T03:22:27.045Z,68.57
2017-08-19T03:23:00.018Z,68.09
2017-08-19T03:23:32.299Z,68.19
2017-08-19T03:24:04.563Z,68.19
2017-08-19T03:24:36.842Z,68.09
2017-08-19T03:25:09.099Z,68.57
2017-08-19T03:25:41.377Z,68.19
2017-08-19T03:26:13.650Z,68.09
2017-08-19T03:26:45.907Z,68.38
2017-08-19T03:27:18.164Z,68.38
2017-08-19T03:27:50.441Z,67.9
2017-08-19T03:28:22.693Z,68.09
2017-08-19T03:28:55.073Z,68.09
2017-08-19T03:29:27.315Z,68.09
2017-08-19T03:29:59.566Z,68.09
2017-08-19T03:30:31.856Z,68.09
2017-08-19T03:31:04.146Z,68.09
2017-08-19T03:31:36.417Z,68.67
2017-08-19T03:32:08.682Z,68.19
2017-08-19T03:32:40.956Z,68.09
2017-08-19T03:33:13.237Z,68.09
2017-08-19T03:33:45.518Z,67.99
2017-08-19T03:34:17.794Z,68.09
2017-08-19T03:34:50.052Z,68.19
2017-08-19T03:35:22.334Z,68.19
2017-08-19T03:35:54.600Z,68.29
2017-08-19T03:36:26.890Z,68.09
2017-08-19T03:36:59.168Z,68.19
2017-08-19T03:37:31.418Z,68.48
2017-08-19T03:38:03.691Z,68.19
2017-08-19T03:38:35.964Z,68.19
2017-08-19T03:39:08.202Z,68.19
2017-08-19T03:39:40.465Z,68.19
2017-08-19T03:40:12.715Z,68.19
2017-08-19T03:40:45.072Z,68.09
2017-08-19T03:41:17.322Z,68.57
2017-08-19T03:41:49.565Z,68.09
2017-08-19T03:42:21.809Z,68.09
2017-08-19T03:42:54.093Z,68.09
2017-08-19T03:43:26.356Z,67.99
2017-08-19T03:43:58.673Z,68.19
2017-08-19T03:44:30.948Z,68.09
2017-08-19T03:45:03.221Z,68.09
2017-08-19T03:45:35.503Z,68.09
2017-08-19T03:46:08.352Z,68.19
2017-08-19T03:46:40.633Z,68.19
2017-08-19T03:47:12.857Z,68.19
2017-08-19T03:47:45.092Z,68.09
2017-08-19T03:48:17.393Z,68.09
2017-08-19T03:48:49.652Z,68.19
2017-08-19T03:49:22.038Z,68.19
2017-08-19T03:49:54.304Z,68.19
2017-08-19T03:50:26.567Z,68.09
2017-08-19T03:50:58.836Z,68.09
2017-08-19T03:51:31.870Z,68.09
2017-08-19T03:52:04.134Z,68.19
2017-08-19T03:52:36.382Z,68.67
2017-08-19T03:53:08.800Z,68.09
2017-08-19T03:53:41.063Z,68.19
2017-08-19T03:54:13.333Z,68.09
2017-08-19T03:54:45.634Z,68.67
2017-08-19T03:55:17.920Z,68.29
2017-08-19T03:55:50.199Z,68.19
2017-08-19T03:56:22.460Z,68.19
2017-08-19T03:56:54.727Z,68.19
2017-08-19T03:57:26.993Z,68.19
2017-08-19T03:57:59.240Z,68.19
2017-08-19T03:58:31.522Z,68.29
2017-08-19T03:59:03.791Z,68.19
2017-08-19T03:59:36.052Z,68.09
2017-08-19T04:00:08.294Z,68.19
2017-08-19T04:00:40.596Z,68.38
2017-08-19T04:01:12.866Z,68.19
2017-08-19T04:01:45.123Z,68.09
2017-08-19T04:02:17.401Z,68.09
2017-08-19T04:02:49.668Z,68.29
2017-08-19T04:03:21.937Z,68.19
2017-08-19T04:03:54.173Z,68.19
2017-08-19T04:04:26.451Z,68.57
2017-08-19T04:04:58.716Z,68.19
2017-08-19T04:05:30.981Z,68.67
2017-08-19T04:06:03.242Z,68.09
2017-08-19T04:06:35.647Z,68.57
2017-08-19T04:07:07.913Z,68.19
2017-08-19T04:07:40.243Z,68.29
2017-08-19T04:08:12.521Z,68.19
2017-08-19T04:08:44.806Z,68.09
2017-08-19T04:09:17.072Z,68.48
2017-08-19T04:09:49.343Z,68.19
2017-08-19T04:10:21.606Z,68.19
2017-08-19T04:10:53.877Z,68.09
2017-08-19T04:11:26.217Z,68.19
2017-08-19T04:11:58.480Z,68.09
2017-08-19T04:12:30.814Z,68.19
2017-08-19T04:13:03.078Z,68.09
2017-08-19T04:13:35.366Z,68.67
2017-08-19T04:14:07.770Z,68.19
2017-08-19T04:14:40.068Z,68.57
2017-08-19T04:15:12.332Z,68.19
2017-08-19T04:15:44.613Z,68.09
2017-08-19T04:16:16.866Z,68.29
2017-08-19T04:16:49.155Z,68.29
2017-08-19T04:17:21.411Z,68.19
2017-08-19T04:17:53.668Z,68.29
2017-08-19T04:18:25.918Z,68.19
2017-08-19T04:18:58.219Z,68.19
2017-08-19T04:19:30.480Z,68.29
2017-08-19T04:20:02.746Z,68.29
2017-08-19T04:20:35.020Z,68.29
2017-08-19T04:21:07.286Z,68.29
2017-08-19T04:21:39.544Z,68.19
2017-08-19T04:22:11.965Z,68.29
2017-08-19T04:22:44.224Z,68.19
2017-08-19T04:23:16.487Z,68.19
2017-08-19T04:23:48.740Z,68.19
2017-08-19T04:24:21.015Z,68.19
2017-08-19T04:24:53.369Z,68.67
2017-08-19T04:25:25.614Z,68.57
2017-08-19T04:25:57.884Z,68.19
2017-08-19T04:26:30.160Z,68.19
2017-08-19T04:27:02.414Z,68.09
2017-08-19T04:27:34.664Z,68.09
2017-08-19T04:28:07.030Z,68.09
2017-08-19T04:28:39.317Z,68.29
2017-08-19T04:29:11.570Z,68.29
2017-08-19T04:29:43.873Z,68.06
2017-08-19T04:30:16.130Z,68.19
2017-08-19T04:30:48.382Z,68.09
2017-08-19T04:31:20.779Z,68.15
2017-08-19T04:31:53.070Z,68.09
2017-08-19T04:32:25.329Z,68.15
2017-08-19T04:32:57.585Z,68.48
2017-08-19T04:33:29.873Z,68.57
2017-08-19T04:34:02.127Z,68.09
2017-08-19T04:34:34.390Z,68.29
2017-08-19T04:35:06.652Z,68.19
2017-08-19T04:35:38.914Z,68.15
2017-08-19T04:36:11.169Z,68.19
2017-08-19T04:36:43.406Z,68.09
2017-08-19T04:37:15.657Z,68.57
2017-08-19T04:37:47.915Z,68.09
2017-08-19T04:38:20.172Z,68.15
2017-08-19T04:38:52.438Z,68.19
2017-08-19T04:39:24.681Z,68.09
2017-08-19T04:39:56.946Z,68.63
2017-08-19T04:40:29.247Z,68.06
2017-08-19T04:41:01.499Z,68.48
2017-08-19T04:41:33.750Z,68.15
2017-08-19T04:42:05.998Z,68.06
2017-08-19T04:42:38.260Z,68.19
2017-08-19T04:43:10.500Z,68.38
2017-08-19T04:43:42.800Z,68.25
2017-08-19T04:44:15.076Z,68.29
2017-08-19T04:44:47.338Z,68.09
2017-08-19T04:45:19.588Z,68.19
2017-08-19T04:45:51.851Z,68.38
2017-08-19T04:46:24.130Z,68.19
2017-08-19T04:46:56.393Z,68.09
2017-08-19T04:47:28.733Z,68.09
2017-08-19T04:48:00.970Z,68.35
2017-08-19T04:48:33.235Z,68.09
2017-08-19T04:49:05.634Z,68.15
2017-08-19T04:49:37.895Z,68.25
2017-08-19T04:50:10.178Z,68.19
2017-08-19T04:50:42.457Z,68.35
2017-08-19T04:51:14.731Z,68.54
2017-08-19T04:51:48.002Z,68.09
2017-08-19T04:52:20.255Z,68.25
2017-08-19T04:52:52.505Z,68.09
2017-08-19T04:53:24.753Z,67.96
2017-08-19T04:53:57.004Z,68.09
2017-08-19T04:54:29.428Z,68.19
2017-08-19T04:55:01.697Z,67.96
2017-08-19T04:55:33.955Z,67.99
2017-08-19T04:56:06.214Z,67.99
2017-08-19T04:56:38.477Z,67.99
2017-08-19T04:57:10.729Z,68.15
2017-08-19T04:57:43.160Z,67.99
2017-08-19T04:58:15.430Z,67.99
2017-08-19T04:58:47.698Z,67.99
2017-08-19T04:59:19.971Z,67.9
2017-08-19T04:59:52.241Z,67.9
2017-08-19T05:00:24.581Z,68.09
2017-08-19T05:00:56.851Z,68.19
2017-08-19T05:01:29.123Z,68.29
2017-08-19T05:02:01.356Z,68.09
2017-08-19T05:02:33.642Z,68.09
2017-08-19T05:03:05.952Z,68.09
2017-08-19T05:03:38.219Z,68.09
2017-08-19T05:04:10.465Z,68.09
2017-08-19T05:04:42.747Z,68.09
2017-08-19T05:05:15.031Z,68.19
2017-08-19T05:05:47.300Z,68.09
2017-08-19T05:06:19.564Z,68.29
2017-08-19T05:06:51.825Z,68.19
2017-08-19T05:07:24.058Z,68.09
2017-08-19T05:07:56.355Z,68.29
2017-08-19T05:08:28.611Z,68.09
2017-08-19T05:09:00.877Z,67.99
2017-08-19T05:09:33.169Z,67.99
2017-08-19T05:10:05.427Z,68.29
2017-08-19T05:10:37.689Z,68.19
2017-08-19T05:11:09.946Z,67.99
2017-08-19T05:11:42.193Z,67.99
2017-08-19T05:12:14.527Z,68.19
2017-08-19T05:12:46.788Z,68.29
2017-08-19T05:13:19.042Z,68.29
2017-08-19T05:13:51.371Z,68.29
2017-08-19T05:14:23.637Z,68.29
2017-08-19T05:14:55.976Z,68.29
2017-08-19T05:15:28.241Z,68.19
2017-08-19T05:16:00.510Z,68.19
2017-08-19T05:16:32.785Z,68.29
2017-08-19T05:17:05.056Z,68.29
2017-08-19T05:17:37.315Z,68.19
2017-08-19T05:18:09.568Z,68.09
2017-08-19T05:18:41.815Z,68.29
2017-08-19T05:19:14.066Z,67.9
2017-08-19T05:19:47.024Z,68.19
2017-08-19T05:20:19.284Z,68.48
2017-08-19T05:20:51.526Z,67.99
2017-08-19T05:21:23.787Z,67.99
2017-08-19T05:21:56.079Z,67.99
2017-08-19T05:22:28.333Z,68.48
2017-08-19T05:23:00.593Z,67.99
2017-08-19T05:23:32.867Z,68.48
2017-08-19T05:24:05.156Z,68.29
2017-08-19T05:24:37.409Z,68.48
2017-08-19T05:25:10.544Z,68.38
2017-08-19T05:25:42.896Z,68.38
2017-08-19T05:26:15.199Z,68.38
2017-08-19T05:26:47.470Z,68.29
2017-08-19T05:27:19.747Z,68.29
2017-08-19T05:27:51.982Z,68.19
2017-08-19T05:28:24.236Z,68.29
2017-08-19T05:28:56.495Z,67.99
2017-08-19T05:29:28.747Z,67.99
2017-08-19T05:30:01.080Z,67.99
2017-08-19T05:30:33.329Z,68.19
2017-08-19T05:31:05.576Z,67.8
2017-08-19T05:31:37.862Z,67.8
2017-08-19T05:32:10.120Z,67.9
2017-08-19T05:32:42.408Z,67.61
2017-08-19T05:33:14.709Z,67.8
2017-08-19T05:33:46.976Z,67.8
2017-08-19T05:34:19.234Z,67.9
2017-08-19T05:34:51.603Z,67.8
2017-08-19T05:35:23.878Z,67.8
2017-08-19T05:35:56.163Z,67.71
2017-08-19T05:36:28.409Z,67.8
2017-08-19T05:37:00.660Z,67.71
2017-08-19T05:37:32.911Z,67.61
2017-08-19T05:38:05.192Z,67.42
2017-08-19T05:38:37.458Z,67.42
2017-08-19T05:39:09.721Z,67.71
2017-08-19T05:39:41.992Z,67.74
2017-08-19T05:40:14.280Z,67.8
2017-08-19T05:40:46.521Z,67.71
2017-08-19T05:41:18.796Z,67.71
2017-08-19T05:41:51.127Z,67.51
2017-08-19T05:42:23.407Z,67.51
2017-08-19T05:42:55.674Z,67.99
2017-08-19T05:43:27.935Z,67.83
2017-08-19T05:44:00.196Z,67.65
2017-08-19T05:44:32.479Z,67.51
2017-08-19T05:45:04.756Z,67.8
2017-08-19T05:45:37.021Z,67.83
2017-08-19T05:46:09.259Z,67.83
2017-08-19T05:46:41.514Z,67.83
2017-08-19T05:47:13.771Z,67.93
2017-08-19T05:47:46.130Z,67.8
2017-08-19T05:48:18.387Z,67.93
2017-08-19T05:48:50.640Z,67.93
2017-08-19T05:49:22.929Z,67.74
2017-08-19T05:49:55.187Z,67.93
2017-08-19T05:50:27.437Z,67.74
2017-08-19T05:50:59.696Z,67.83
2017-08-19T05:51:31.980Z,67.93
2017-08-19T05:52:04.241Z,67.74
2017-08-19T05:52:36.484Z,67.83
2017-08-19T05:53:09.408Z,67.65
2017-08-19T05:53:41.674Z,67.65
2017-08-19T05:54:13.921Z,67.93
2017-08-19T05:54:46.264Z,67.65
2017-08-19T05:55:18.531Z,67.74
2017-08-19T05:55:50.770Z,67.83
2017-08-19T05:56:23.012Z,68.03
2017-08-19T05:56:55.263Z,67.55
2017-08-19T05:57:27.520Z,67.93
2017-08-19T05:57:59.845Z,67.35
2017-08-19T05:58:32.097Z,67.35
2017-08-19T05:59:04.361Z,67.45
2017-08-19T05:59:36.621Z,67.35
2017-08-19T06:00:08.886Z,67.55
2017-08-19T06:00:41.133Z,67.35
2017-08-19T06:01:13.422Z,67.45
2017-08-19T06:01:45.679Z,67.26
2017-08-19T06:02:17.938Z,67.16
2017-08-19T06:02:50.268Z,67.35
2017-08-19T06:03:22.513Z,67.45
2017-08-19T06:03:54.784Z,67.16
2017-08-19T06:04:27.041Z,67.45
2017-08-19T06:04:59.300Z,67.55
2017-08-19T06:05:31.579Z,67.19
2017-08-19T06:06:03.825Z,67.39
2017-08-19T06:06:36.084Z,67.19
2017-08-19T06:07:08.355Z,67.77
2017-08-19T06:07:40.620Z,67.77
2017-08-19T06:08:13.007Z,67.39
2017-08-19T06:08:45.268Z,67.49
2017-08-19T06:09:17.549Z,67.49
2017-08-19T06:09:49.834Z,67.19
2017-08-19T06:10:22.091Z,67.39
2017-08-19T06:10:54.341Z,67.68
2017-08-19T06:11:26.616Z,67.1
2017-08-19T06:11:58.858Z,67.39
2017-08-19T06:12:31.110Z,67.29
2017-08-19T06:13:03.383Z,67.29
2017-08-19T06:13:35.653Z,67.19
2017-08-19T06:14:07.922Z,67.1
2017-08-19T06:14:40.212Z,67.39
2017-08-19T06:15:12.505Z,67.39
2017-08-19T06:15:44.792Z,67.29
2017-08-19T06:16:17.060Z,67
2017-08-19T06:16:49.347Z,67.68
2017-08-19T06:17:21.649Z,67
2017-08-19T06:17:53.921Z,67.1
2017-08-19T06:18:26.201Z,66.81
2017-08-19T06:18:58.488Z,67.49
2017-08-19T06:19:30.787Z,67.19
2017-08-19T06:20:03.090Z,67.29
2017-08-19T06:20:35.403Z,67.1
2017-08-19T06:21:07.718Z,67.13
2017-08-19T06:21:40.013Z,66.71
2017-08-19T06:22:12.317Z,67.13
2017-08-19T06:22:44.606Z,67.03
2017-08-19T06:23:16.896Z,66.94
2017-08-19T06:23:49.293Z,66.94
2017-08-19T06:24:21.544Z,66.94
2017-08-19T06:24:53.790Z,66.65
2017-08-19T06:25:26.052Z,66.94
2017-08-19T06:25:58.315Z,66.85
2017-08-19T06:26:30.600Z,66.65
2017-08-19T06:27:02.832Z,67.23
2017-08-19T06:27:35.137Z,66.65
2017-08-19T06:28:07.396Z,67.23
2017-08-19T06:28:39.689Z,66.55
2017-08-19T06:29:11.940Z,67.03
2017-08-19T06:29:44.223Z,66.94
2017-08-19T06:30:16.467Z,66.85
2017-08-19T06:30:48.718Z,67.13
2017-08-19T06:31:21.000Z,66.75
2017-08-19T06:31:53.339Z,66.94
2017-08-19T06:32:25.598Z,66.94
2017-08-19T06:32:57.865Z,66.85
2017-08-19T06:33:30.151Z,67.03
2017-08-19T06:34:02.402Z,67.42
2017-08-19T06:34:34.652Z,66.88
2017-08-19T06:35:06.911Z,66.94
2017-08-19T06:35:39.894Z,66.78
2017-08-19T06:36:12.159Z,67.03
2017-08-19T06:36:44.411Z,66.59
2017-08-19T06:37:16.712Z,66.97
2017-08-19T06:37:49.015Z,66.69
2017-08-19T06:38:21.283Z,66.78
2017-08-19T06:38:53.563Z,66.39
2017-08-19T06:39:25.884Z,66.97
2017-08-19T06:39:58.143Z,66.3
2017-08-19T06:40:30.401Z,66.39
2017-08-19T06:41:02.738Z,66.3
2017-08-19T06:41:34.998Z,66.59
2017-08-19T06:42:07.269Z,66.49
2017-08-19T06:42:39.567Z,66.49
2017-08-19T06:43:11.842Z,66.49
2017-08-19T06:43:44.118Z,66.59
2017-08-19T06:44:16.391Z,66.49
2017-08-19T06:44:48.671Z,66.59
2017-08-19T06:45:20.944Z,66.97
2017-08-19T06:45:53.227Z,66.78
2017-08-19T06:46:25.538Z,66.39
2017-08-19T06:46:57.825Z,66.49
2017-08-19T06:47:30.110Z,66.3
2017-08-19T06:48:02.411Z,66.39
2017-08-19T06:48:34.717Z,66.3
2017-08-19T06:49:07.019Z,66.3
2017-08-19T06:49:39.317Z,66.3
2017-08-19T06:50:11.596Z,66.78
2017-08-19T06:50:43.886Z,66.33
2017-08-19T06:51:16.202Z,66.91
2017-08-19T06:51:48.488Z,66.43
2017-08-19T06:52:20.795Z,66.91
2017-08-19T06:52:53.078Z,66.33
2017-08-19T06:53:25.364Z,66.62
2017-08-19T06:53:57.660Z,66.72
2017-08-19T06:54:29.956Z,66.62
2017-08-19T06:55:02.241Z,66.91
2017-08-19T06:55:34.538Z,66.52
2017-08-19T06:56:06.827Z,66.14